Aviation Digital Data Service (ADDS)

Output produced by METARs form (1844 UTC 27 July 2017)
found at http://aviationweather.gov/adds/metars/
 
KFNT 271720Z 2718/2818 04011KT P6SM BKN015 
     FM271900 04011KT P6SM BKN028 
     FM272100 04011KT P6SM BKN035 
     FM272300 06007KT P6SM SCT035 
     FM280600 03005KT P6SM SCT250